createdAt,value
2023-04-25T00:02:50.038Z,80.17
2023-04-25T00:07:02.961Z,79.84
2023-04-25T00:11:15.566Z,79.51
2023-04-25T00:15:27.867Z,79.71
2023-04-25T00:19:40.424Z,79.76
2023-04-25T00:23:54.798Z,79.38
2023-04-25T00:28:07.205Z,79.58
2023-04-25T00:32:19.780Z,79.99
2023-04-25T00:36:32.634Z,80.71
2023-04-25T00:40:45.153Z,81.76
2023-04-25T00:44:58.420Z,81.49
2023-04-25T00:49:16.628Z,81.78
2023-04-25T00:53:29.630Z,82.59
2023-04-25T00:57:42.101Z,82.14
2023-04-25T01:01:54.618Z,82.42
2023-04-25T01:06:11.167Z,80.17
2023-04-25T01:10:23.619Z,81.05
2023-04-25T01:14:36.378Z,79.69
2023-04-25T01:18:49.521Z,80.86
2023-04-25T01:23:04.170Z,81.54
2023-04-25T01:27:17.343Z,80.82
2023-04-25T01:31:30.365Z,80.32
2023-04-25T01:35:43.230Z,81.73
2023-04-25T01:39:55.761Z,84.47
2023-04-25T01:44:08.732Z,84.31
2023-04-25T01:48:22.162Z,83.46
2023-04-25T01:52:34.497Z,83.30
2023-04-25T01:56:52.384Z,85.65
2023-04-25T02:01:06.356Z,84.32
2023-04-25T02:05:26.472Z,84.09
2023-04-25T02:09:39.389Z,84.53
2023-04-25T02:13:53.367Z,84.76
2023-04-25T02:18:34.877Z,85.37
2023-04-25T02:22:47.462Z,85.34
2023-04-25T02:27:00.013Z,82.19
2023-04-25T02:31:12.427Z,81.64
2023-04-25T02:35:24.816Z,82.90
2023-04-25T02:39:39.979Z,83.74
2023-04-25T02:43:52.648Z,84.36
2023-04-25T02:48:05.680Z,83.72
2023-04-25T02:52:18.282Z,83.49
2023-04-25T02:56:37.557Z,84.30
2023-04-25T03:00:56.136Z,84.99
2023-04-25T03:05:08.592Z,85.58
2023-04-25T03:09:21.783Z,85.00
2023-04-25T03:13:34.912Z,85.05
2023-04-25T03:17:47.390Z,84.18
2023-04-25T03:21:59.770Z,84.33
2023-04-25T03:26:12.566Z,82.16
2023-04-25T03:30:25.350Z,82.45
2023-04-25T03:34:37.741Z,85.05
2023-04-25T03:38:50.219Z,82.70
2023-04-25T03:43:03.842Z,84.24
2023-04-25T03:47:16.975Z,82.91
2023-04-25T03:51:30.288Z,84.46
2023-04-25T03:55:43.578Z,84.89
2023-04-25T03:59:56.360Z,86.72
2023-04-25T04:04:09.792Z,86.75
2023-04-25T04:08:22.591Z,84.99
2023-04-25T04:12:35.312Z,84.28
2023-04-25T04:16:47.892Z,84.09
2023-04-25T04:21:00.857Z,83.05
2023-04-25T04:25:16.332Z,83.90
2023-04-25T04:29:47.687Z,84.15
2023-04-25T04:34:10.839Z,83.34
2023-04-25T04:38:24.236Z,81.76
2023-04-25T04:42:39.942Z,82.29
2023-04-25T04:47:12.007Z,82.38
2023-04-25T04:51:50.976Z,80.81
2023-04-25T04:56:26.743Z,81.30
2023-04-25T05:01:09.742Z,80.60
2023-04-25T05:05:41.351Z,80.31
2023-04-25T05:10:16.588Z,79.98
2023-04-25T05:14:51.934Z,79.87
2023-04-25T05:19:21.910Z,79.69
2023-04-25T05:23:53.371Z,79.23
2023-04-25T05:28:08.524Z,77.98
2023-04-25T05:32:39.316Z,77.46
2023-04-25T05:36:51.923Z,76.00
2023-04-25T05:41:05.305Z,75.75
2023-04-25T05:45:42.607Z,71.32
2023-04-25T05:50:14.429Z,70.15
2023-04-25T05:54:49.718Z,67.00
2023-04-25T05:59:02.362Z,66.27
2023-04-25T06:03:19.748Z,65.99
2023-04-25T06:07:33.134Z,65.54
2023-04-25T06:11:46.009Z,65.48
2023-04-25T06:15:58.397Z,66.33
2023-04-25T06:20:12.329Z,66.17
2023-04-25T06:24:26.153Z,65.52
2023-04-25T06:28:38.835Z,64.90
2023-04-25T06:32:51.451Z,65.64
2023-04-25T06:37:04.074Z,64.85
2023-04-25T06:41:16.635Z,62.07
2023-04-25T06:45:29.143Z,62.87
2023-04-25T06:49:41.526Z,63.30
2023-04-25T06:53:54.516Z,63.44
2023-04-25T06:58:20.322Z,62.78
2023-04-25T07:02:43.804Z,62.82
2023-04-25T07:06:56.692Z,64.37
2023-04-25T07:11:19.163Z,65.64
2023-04-25T07:15:31.465Z,67.31
2023-04-25T07:19:45.109Z,66.48
2023-04-25T07:23:57.700Z,65.73
2023-04-25T07:28:17.448Z,65.00
2023-04-25T07:32:31.681Z,63.21
2023-04-25T07:36:44.731Z,62.24
2023-04-25T07:40:57.315Z,58.97
2023-04-25T07:45:10.662Z,56.59
2023-04-25T07:49:24.960Z,54.73
2023-04-25T07:53:38.954Z,58.17
2023-04-25T07:57:56.266Z,59.72
2023-04-25T08:02:08.816Z,60.35
2023-04-25T08:06:21.662Z,60.03
2023-04-25T08:10:52.099Z,56.59
2023-04-25T08:15:06.746Z,55.41
2023-04-25T08:19:24.695Z,55.46
2023-04-25T08:23:38.888Z,58.37
2023-04-25T08:28:00.880Z,58.01
2023-04-25T08:32:13.289Z,59.48
2023-04-25T08:36:39.316Z,59.61
2023-04-25T08:41:12.503Z,58.91
2023-04-25T08:45:26.415Z,57.25
2023-04-25T08:49:41.311Z,58.31
2023-04-25T08:53:57.627Z,57.62
2023-04-25T08:58:15.239Z,57.29
2023-04-25T09:02:28.309Z,55.59
2023-04-25T09:06:41.264Z,54.12
2023-04-25T09:10:53.998Z,49.26
2023-04-25T09:19:42.173Z,52.86
2023-04-25T09:24:17.369Z,52.42
2023-04-25T09:28:30.983Z,52.57
2023-04-25T09:32:46.928Z,54.47
2023-04-25T09:37:03.432Z,53.25
2023-04-25T09:41:44.870Z,52.34
2023-04-25T09:46:01.716Z,56.00
2023-04-25T09:50:17.948Z,60.40
2023-04-25T09:54:33.896Z,66.38
2023-04-25T09:58:59.814Z,70.29
2023-04-25T10:03:13.679Z,71.15
2023-04-25T10:07:42.812Z,71.58
2023-04-25T10:12:01.306Z,72.66
2023-04-25T10:16:14.695Z,68.57
2023-04-25T10:20:27.209Z,69.82
2023-04-25T10:24:40.739Z,67.90
2023-04-25T10:29:04.638Z,64.76
2023-04-25T10:33:20.121Z,59.13
2023-04-25T10:37:32.532Z,57.06
2023-04-25T10:42:04.132Z,55.81
2023-04-25T10:46:36.415Z,55.03
2023-04-25T10:50:50.350Z,58.33
2023-04-25T10:55:05.255Z,58.58
2023-04-25T10:59:22.780Z,54.74
2023-04-25T11:03:42.583Z,54.65
2023-04-25T11:08:07.173Z,55.67
2023-04-25T11:12:20.953Z,53.17
2023-04-25T11:16:33.536Z,54.10
2023-04-25T11:20:45.995Z,53.24
2023-04-25T11:24:58.466Z,48.42
2023-04-25T11:29:11.509Z,49.90
2023-04-25T11:33:28.629Z,50.53
2023-04-25T11:37:42.127Z,50.16
2023-04-25T11:41:55.296Z,52.62
2023-04-25T11:46:11.018Z,53.37
2023-04-25T11:50:23.530Z,51.98
2023-04-25T11:54:38.184Z,52.91
2023-04-25T11:59:07.832Z,49.77
2023-04-25T12:03:20.757Z,46.53
2023-04-25T12:07:33.328Z,47.81
2023-04-25T12:11:50.060Z,46.83
2023-04-25T12:16:02.528Z,45.88
2023-04-25T12:20:17.268Z,44.31
2023-04-25T12:24:29.899Z,41.92
2023-04-25T12:28:48.567Z,43.17
2023-04-25T12:33:01.070Z,43.80
2023-04-25T12:37:13.876Z,42.96
2023-04-25T12:41:26.452Z,43.79
2023-04-25T12:45:38.868Z,44.67
2023-04-25T12:49:51.866Z,42.56
2023-04-25T12:54:07.269Z,42.84
2023-04-25T12:58:21.139Z,44.77
2023-04-25T13:02:33.735Z,45.31
2023-04-25T13:06:46.425Z,45.42
2023-04-25T13:10:58.794Z,46.14
2023-04-25T13:15:12.657Z,45.81
2023-04-25T13:19:25.075Z,46.96
2023-04-25T13:23:37.587Z,45.94
2023-04-25T13:27:50.053Z,45.81
2023-04-25T13:32:04.490Z,45.77
2023-04-25T13:36:16.992Z,44.34
2023-04-25T13:40:29.580Z,44.47
2023-04-25T13:44:45.013Z,43.65
2023-04-25T13:49:06.165Z,43.75
2023-04-25T13:53:24.483Z,45.85
2023-04-25T13:57:39.351Z,47.83
2023-04-25T14:01:53.768Z,47.74
2023-04-25T14:06:06.449Z,49.26
2023-04-25T14:10:21.308Z,48.78
2023-04-25T14:14:33.772Z,48.18
2023-04-25T14:18:46.402Z,47.33
2023-04-25T14:22:59.439Z,47.48
2023-04-25T14:27:12.672Z,47.66
2023-04-25T14:31:25.223Z,45.97
2023-04-25T14:35:37.679Z,45.36
2023-04-25T14:39:50.106Z,44.63
2023-04-25T14:44:02.575Z,44.11
2023-04-25T14:48:15.349Z,46.05
2023-04-25T14:52:27.868Z,47.58
2023-04-25T14:56:40.317Z,44.06
2023-04-25T15:00:52.921Z,44.22
2023-04-25T15:05:05.844Z,46.28
2023-04-25T15:09:19.321Z,47.36
2023-04-25T15:13:32.277Z,45.55
2023-04-25T15:17:45.207Z,44.36
2023-04-25T15:21:57.827Z,43.95
2023-04-25T15:26:10.374Z,43.96
2023-04-25T15:30:23.097Z,42.76
2023-04-25T15:34:36.451Z,42.80
2023-04-25T15:38:48.972Z,42.11
2023-04-25T15:43:01.461Z,41.94
2023-04-25T15:47:14.033Z,43.24
2023-04-25T15:51:27.176Z,42.57
2023-04-25T15:55:40.026Z,43.18
2023-04-25T15:59:52.409Z,44.08
2023-04-25T16:04:05.181Z,45.85
2023-04-25T16:08:17.803Z,45.89
2023-04-25T16:12:31.415Z,45.98
2023-04-25T16:16:45.155Z,45.15
2023-04-25T16:20:57.760Z,45.50
2023-04-25T16:25:12.040Z,45.39
2023-04-25T16:29:24.452Z,46.02
2023-04-25T16:33:36.979Z,45.72
2023-04-25T16:37:49.514Z,46.17
2023-04-25T16:42:04.063Z,47.11
2023-04-25T16:46:19.843Z,47.62
2023-04-25T16:50:32.584Z,48.85
2023-04-25T16:54:45.836Z,48.74
2023-04-25T16:58:58.227Z,49.01
2023-04-25T17:03:10.923Z,49.64
2023-04-25T17:07:24.981Z,49.04
2023-04-25T17:11:37.704Z,50.69
2023-04-25T17:15:50.147Z,52.14
2023-04-25T17:20:02.570Z,52.50
2023-04-25T17:24:16.094Z,53.16
2023-04-25T17:28:28.596Z,55.07
2023-04-25T17:32:41.070Z,55.40
2023-04-25T17:36:53.484Z,54.85
2023-04-25T17:41:06.288Z,56.10
2023-04-25T17:45:18.981Z,55.44
2023-04-25T17:49:33.580Z,54.73
2023-04-25T17:53:46.261Z,55.18
2023-04-25T17:57:58.670Z,53.13
2023-04-25T18:02:12.904Z,53.66
2023-04-25T18:06:25.330Z,53.93
2023-04-25T18:10:39.223Z,54.31
2023-04-25T18:14:53.221Z,55.71
2023-04-25T18:19:11.741Z,55.38
2023-04-25T18:23:24.224Z,54.91
2023-04-25T18:27:38.189Z,56.17
2023-04-25T18:31:50.833Z,57.26
2023-04-25T18:36:03.278Z,56.66
2023-04-25T18:40:16.611Z,56.70
2023-04-25T18:44:28.988Z,56.65
2023-04-25T18:48:41.395Z,56.97
2023-04-25T18:52:53.871Z,56.65
2023-04-25T18:57:06.486Z,56.95
2023-04-25T19:01:19.035Z,56.19
2023-04-25T19:05:34.466Z,56.37
2023-04-25T19:09:47.291Z,55.70
2023-04-25T19:14:01.359Z,56.20
2023-04-25T19:18:15.250Z,56.50
2023-04-25T19:22:27.755Z,56.37
2023-04-25T19:26:40.170Z,56.31
2023-04-25T19:30:53.080Z,56.64
2023-04-25T19:35:05.984Z,55.15
2023-04-25T19:39:18.458Z,55.98
2023-04-25T19:43:32.200Z,57.48
2023-04-25T19:47:45.220Z,59.76
2023-04-25T19:51:57.593Z,57.35
2023-04-25T19:56:09.984Z,60.45
2023-04-25T20:00:22.771Z,62.06
2023-04-25T20:04:35.315Z,58.78
2023-04-25T20:08:47.911Z,60.69
2023-04-25T20:13:00.285Z,65.22
2023-04-25T20:17:13.112Z,68.68
2023-04-25T20:21:25.662Z,63.10
2023-04-25T20:25:38.952Z,67.86
2023-04-25T20:29:51.585Z,70.76
2023-04-25T20:34:04.561Z,72.03
2023-04-25T20:38:17.470Z,72.87
2023-04-25T20:42:30.104Z,68.15
2023-04-25T20:46:42.554Z,67.07
2023-04-25T20:50:54.982Z,68.46
2023-04-25T20:55:08.456Z,69.84
2023-04-25T20:59:20.908Z,75.64
2023-04-25T21:03:34.372Z,78.34
2023-04-25T21:07:49.486Z,78.30
2023-04-25T21:12:03.491Z,75.15
2023-04-25T21:16:16.594Z,76.13
2023-04-25T21:20:29.121Z,80.36
2023-04-25T21:24:41.662Z,81.39
2023-04-25T21:28:54.940Z,83.97
2023-04-25T21:33:07.586Z,82.32
2023-04-25T21:37:20.074Z,81.29
2023-04-25T21:41:32.871Z,84.42
2023-04-25T21:50:04.968Z,83.90
2023-04-25T21:54:17.367Z,84.02
2023-04-25T21:58:29.785Z,83.58
2023-04-25T22:02:42.418Z,83.90
2023-04-25T22:06:54.853Z,84.39
2023-04-25T22:11:08.513Z,84.74
2023-04-25T22:15:24.095Z,84.29
2023-04-25T22:19:37.490Z,86.26
2023-04-25T22:23:52.425Z,100.00
2023-04-25T22:28:05.549Z,100.00
2023-04-25T22:32:49.985Z,86.26
2023-04-25T22:37:02.349Z,87.43
2023-04-25T22:41:15.236Z,91.17
2023-04-25T22:45:27.802Z,92.04
2023-04-25T22:49:40.376Z,92.74
2023-04-25T22:53:53.653Z,92.50
2023-04-25T22:58:09.583Z,92.99
2023-04-25T23:02:22.301Z,89.93
2023-04-25T23:06:34.820Z,91.63
2023-04-25T23:10:47.598Z,88.68
2023-04-25T23:14:59.956Z,89.22
2023-04-25T23:19:12.820Z,89.46
2023-04-25T23:23:25.297Z,91.65
2023-04-25T23:27:38.437Z,92.79
2023-04-25T23:31:51.434Z,92.50
2023-04-25T23:36:04.362Z,92.30
2023-04-25T23:40:16.848Z,91.74
2023-04-25T23:44:29.242Z,92.10
2023-04-25T23:48:41.838Z,92.52
2023-04-25T23:52:54.187Z,90.34
2023-04-25T23:57:06.470Z,90.18
